Time;durP1;ratioP1;P1;durP2;ratioP2;P2;SDS_P1;SDS_P2;PMS_P1;PMS_P2;Temp;Humidity;BMP_temperature;BMP_pressure;BME280_temperature;BME280_humidity;BME280_pressure;Samples;Min_cycle;Max_cycle;Signal;HPM_P1;HPM_P2
2024/03/04 00:05:34;;;;;;;41.10;28.30;;;;;;;5.57;92.23;98724.71;446143;1242;138496;-49
2024/03/04 00:15:37;;;;;;;30.10;25.70;;;;;;;5.46;92.47;98731.81;446142;1242;138443;-47
2024/03/04 00:25:42;;;;;;;33.50;26.00;;;;;;;5.36;92.45;98736.67;446890;1238;138549;-57
2024/03/04 00:35:46;;;;;;;32.70;26.20;;;;;;;5.31;92.50;98731.94;446990;1242;138844;-57
2024/03/04 00:45:49;;;;;;;35.10;26.30;;;;;;;5.30;92.67;98728.30;446209;1238;138557;-63
2024/03/04 00:55:53;;;;;;;32.10;25.10;;;;;;;5.30;92.72;98738.41;446289;1242;138594;-63
2024/03/04 01:05:58;;;;;;;32.60;27.30;;;;;;;5.29;92.73;98728.40;446113;1238;138879;-63
2024/03/04 01:16:05;;;;;;;36.30;26.10;;;;;;;5.26;92.84;98721.44;446969;1241;138425;-64
2024/03/04 01:26:09;;;;;;;34.20;25.90;;;;;;;5.24;92.90;98720.02;446222;1242;138328;-62
2024/03/04 01:36:13;;;;;;;35.50;25.20;;;;;;;5.22;93.01;98719.78;446401;1242;138876;-59
2024/03/04 01:46:17;;;;;;;39.40;29.10;;;;;;;5.18;93.05;98711.83;446595;1238;138679;-59
2024/03/04 01:56:23;;;;;;;33.40;27.00;;;;;;;5.15;93.58;98711.98;446839;1238;138446;-57
2024/03/04 02:06:29;;;;;;;30.50;24.70;;;;;;;5.08;94.22;98711.14;446242;1242;138874;-58
2024/03/04 02:16:33;;;;;;;34.60;25.90;;;;;;;5.01;95.06;98710.33;446289;1239;139325;-58
2024/03/04 02:26:36;;;;;;;34.70;25.30;;;;;;;4.97;96.00;98716.95;446734;1241;138774;-58
2024/03/04 02:36:40;;;;;;;38.10;25.70;;;;;;;4.93;96.52;98726.70;446238;1242;138500;-62
2024/03/04 02:46:44;;;;;;;30.80;22.30;;;;;;;4.87;97.36;98729.28;446276;1242;138973;-64
2024/03/04 02:56:47;;;;;;;37.50;26.80;;;;;;;4.83;98.31;98741.98;446944;1242;138859;-50
2024/03/04 03:06:50;;;;;;;33.40;26.10;;;;;;;4.74;99.60;98744.38;447523;1238;138714;-47
2024/03/04 03:16:54;;;;;;;32.70;25.20;;;;;;;4.68;100.00;98740.55;446605;1241;138479;-47
2024/03/04 03:26:57;;;;;;;34.90;25.60;;;;;;;4.59;100.00;98724.55;447590;1242;138473;-51
2024/03/04 03:37:00;;;;;;;38.90;28.00;;;;;;;4.42;100.00;98711.07;446155;1238;138538;-56
2024/03/04 03:47:05;;;;;;;42.20;30.90;;;;;;;4.31;100.00;98697.77;446267;1242;139105;-56
2024/03/04 03:57:08;;;;;;;38.20;29.10;;;;;;;4.18;100.00;98693.23;446979;1242;138628;-57
2024/03/04 04:07:12;;;;;;;41.00;29.00;;;;;;;4.12;100.00;98698.23;446338;1239;139067;-59
2024/03/04 04:17:17;;;;;;;36.60;25.90;;;;;;;4.10;100.00;98709.73;446403;1242;138952;-58
2024/03/04 04:27:22;;;;;;;37.20;27.70;;;;;;;4.05;100.00;98715.52;446916;1238;140957;-58
2024/03/04 04:37:26;;;;;;;35.80;25.70;;;;;;;4.01;100.00;98712.95;446515;1242;138471;-55
2024/03/04 04:47:29;;;;;;;39.40;28.40;;;;;;;3.97;100.00;98717.48;446902;1242;139553;-57
2024/03/04 04:57:33;;;;;;;35.50;27.10;;;;;;;3.92;100.00;98723.83;446068;1242;138967;-56
2024/03/04 05:07:38;;;;;;;36.90;25.30;;;;;;;3.87;100.00;98727.00;446845;1240;139037;-59
2024/03/04 05:17:41;;;;;;;31.60;24.40;;;;;;;3.83;100.00;98715.09;446636;1239;139006;-58
2024/03/04 05:27:45;;;;;;;34.30;25.50;;;;;;;3.79;100.00;98717.36;446667;1242;139099;-57
2024/03/04 05:37:48;;;;;;;38.50;26.60;;;;;;;3.79;100.00;98733.44;446659;1242;139309;-56
2024/03/04 05:47:51;;;;;;;38.00;25.20;;;;;;;3.80;100.00;98733.24;446506;1242;138919;-57
2024/03/04 05:57:55;;;;;;;37.10;25.60;;;;;;;3.84;100.00;98736.52;446457;1242;139833;-56
2024/03/04 06:08:01;;;;;;;36.80;25.30;;;;;;;3.92;100.00;98744.91;446910;1242;139094;-56
2024/03/04 06:18:06;;;;;;;33.00;25.60;;;;;;;4.02;100.00;98746.88;446462;1238;138498;-55
2024/03/04 06:28:09;;;;;;;40.00;27.90;;;;;;;4.10;100.00;98756.15;446194;1242;139168;-55
2024/03/04 06:38:15;;;;;;;37.60;27.70;;;;;;;4.21;100.00;98764.79;442898;1242;5138764;-56
2024/03/04 06:48:18;;;;;;;34.60;26.10;;;;;;;4.32;100.00;98769.40;446861;1242;139099;-48
2024/03/04 06:58:22;;;;;;;34.10;26.40;;;;;;;4.44;100.00;98781.96;446736;1242;139664;-52
2024/03/04 07:08:25;;;;;;;37.30;28.90;;;;;;;4.59;100.00;98784.33;446818;1240;138784;-72
2024/03/04 07:18:31;;;;;;;35.00;26.80;;;;;;;4.78;100.00;98780.21;446395;1242;138434;-55
2024/03/04 07:28:34;;;;;;;40.10;29.70;;;;;;;5.01;100.00;98776.58;446305;1242;139102;-65
2024/03/04 07:38:38;;;;;;;39.70;29.30;;;;;;;5.17;100.00;98780.23;447084;1242;138496;-62
2024/03/04 07:48:41;;;;;;;35.90;29.40;;;;;;;5.26;100.00;98786.89;446647;1238;138908;-61
2024/03/04 07:58:44;;;;;;;36.50;26.60;;;;;;;5.42;100.00;98789.64;446962;1242;138806;-71
2024/03/04 08:08:48;;;;;;;40.50;29.10;;;;;;;5.55;100.00;98787.85;446690;1242;138899;-73
2024/03/04 08:18:51;;;;;;;36.50;25.50;;;;;;;5.68;100.00;98787.89;446504;1242;138781;-60
2024/03/04 08:28:58;;;;;;;36.30;26.30;;;;;;;5.83;100.00;98794.84;446977;1242;138445;-60
2024/03/04 08:39:03;;;;;;;40.60;28.90;;;;;;;5.98;100.00;98806.64;447134;1242;138918;-62
2024/03/04 08:49:06;;;;;;;34.30;25.50;;;;;;;6.16;100.00;98811.20;446621;1242;138490;-66
2024/03/04 08:59:10;;;;;;;31.00;23.00;;;;;;;6.42;100.00;98814.73;447133;1242;138651;-60
2024/03/04 09:09:14;;;;;;;34.80;25.10;;;;;;;6.64;100.00;98815.19;447025;1242;138515;-61
2024/03/04 09:19:17;;;;;;;35.50;26.20;;;;;;;6.90;100.00;98813.42;447023;1242;139002;-60
2024/03/04 09:29:20;;;;;;;31.40;23.90;;;;;;;7.06;100.00;98805.67;446454;1242;138494;-74
2024/03/04 09:39:25;;;;;;;32.90;23.80;;;;;;;7.11;100.00;98804.91;448966;1237;139102;-61
2024/03/04 09:49:29;;;;;;;31.10;23.30;;;;;;;7.15;100.00;98810.52;448384;1238;138482;-61
2024/03/04 09:59:33;;;;;;;27.90;21.90;;;;;;;7.24;100.00;98820.43;448716;1237;138505;-61
2024/03/04 10:09:37;;;;;;;27.30;22.00;;;;;;;7.40;100.00;98821.36;448411;1237;138688;-61
2024/03/04 10:19:42;;;;;;;31.20;25.20;;;;;;;7.47;100.00;98822.80;448832;1238;138545;-64
2024/03/04 10:29:47;;;;;;;35.70;25.20;;;;;;;7.71;100.00;98827.77;448487;1237;139087;-61
2024/03/04 10:39:52;;;;;;;38.10;28.20;;;;;;;7.62;100.00;98825.02;448539;1237;138597;-61
2024/03/04 10:49:56;;;;;;;36.80;27.70;;;;;;;7.49;100.00;98818.84;448545;1237;139056;-60
2024/03/04 11:00:10;;;;;;;30.40;25.40;;;;;;;7.48;100.00;98816.87;448793;1237;138762;-73
2024/03/04 11:10:30;;;;;;;39.10;26.20;;;;;;;7.58;100.00;98818.34;448905;1237;139216;-65
2024/03/04 11:20:41;;;;;;;33.80;25.10;;;;;;;7.57;100.00;98820.61;449251;1237;138731;-60
2024/03/04 11:30:48;;;;;;;34.60;24.60;;;;;;;7.49;100.00;98824.81;449267;1235;139272;-64
2024/03/04 11:40:56;;;;;;;42.40;28.70;;;;;;;7.52;100.00;98823.38;448836;1235;139054;-69
2024/03/04 11:51:01;;;;;;;38.30;28.00;;;;;;;7.47;100.00;98824.21;449610;1234;138664;-69
2024/03/04 12:01:05;;;;;;;39.40;27.00;;;;;;;7.49;100.00;98819.07;448989;1237;138759;-56
2024/03/04 12:11:23;;;;;;;42.20;29.10;;;;;;;7.58;100.00;98811.83;449510;1237;138946;-58
2024/03/04 12:21:27;;;;;;;40.00;29.50;;;;;;;7.53;100.00;98816.02;449239;1237;138794;-59
2024/03/04 12:31:32;;;;;;;33.00;25.30;;;;;;;7.54;100.00;98809.16;448957;1238;138971;-58
2024/03/04 12:41:38;;;;;;;37.40;27.50;;;;;;;7.48;100.00;98819.64;449302;1235;139216;-59
2024/03/04 12:51:41;;;;;;;36.40;26.60;;;;;;;7.31;100.00;98818.40;449040;1237;138941;-58
2024/03/04 13:01:44;;;;;;;32.10;24.30;;;;;;;7.26;100.00;98818.88;448819;1237;138791;-58
2024/03/04 13:11:52;;;;;;;33.00;24.50;;;;;;;7.28;100.00;98818.25;449490;1237;138997;-63
2024/03/04 13:21:56;;;;;;;41.30;28.10;;;;;;;7.28;100.00;98815.14;448531;1237;139146;-55
2024/03/04 13:31:59;;;;;;;29.10;24.60;;;;;;;7.25;100.00;98813.77;450141;1237;138864;-57
2024/03/04 13:42:03;;;;;;;36.10;25.40;;;;;;;7.19;100.00;98809.77;448603;1237;139195;-55
2024/03/04 13:52:07;;;;;;;31.70;22.90;;;;;;;7.25;100.00;98814.92;448965;1237;138768;-59
2024/03/04 14:02:11;;;;;;;41.20;27.00;;;;;;;7.17;100.00;98810.96;448917;1237;138753;-56
2024/03/04 14:12:16;;;;;;;47.50;30.40;;;;;;;7.11;100.00;98807.65;449138;1237;138642;-50
2024/03/04 14:22:20;;;;;;;43.20;31.60;;;;;;;7.09;100.00;98819.23;448514;1237;138675;-65
2024/03/04 14:32:23;;;;;;;45.70;30.70;;;;;;;7.01;100.00;98827.05;448741;1237;138665;-66
2024/03/04 14:42:29;;;;;;;45.80;34.20;;;;;;;7.01;100.00;98824.80;448893;1237;138764;-69
2024/03/04 14:52:32;;;;;;;40.20;28.90;;;;;;;6.89;100.00;98821.69;450714;1234;139497;-66
2024/03/04 15:02:39;;;;;;;43.60;30.10;;;;;;;6.89;100.00;98822.04;449396;1234;138820;-58
2024/03/04 15:12:42;;;;;;;35.10;24.70;;;;;;;6.86;100.00;98824.45;448625;1238;139154;-56
2024/03/04 15:22:47;;;;;;;40.80;28.30;;;;;;;6.88;100.00;98827.35;448664;1234;139271;-61
2024/03/04 15:32:51;;;;;;;35.80;25.40;;;;;;;6.86;100.00;98829.51;448946;1237;139152;-61
2024/03/04 15:42:55;;;;;;;35.70;25.00;;;;;;;6.71;100.00;98835.65;449109;1237;139869;-56
2024/03/04 15:53:00;;;;;;;38.10;26.80;;;;;;;6.48;100.00;98838.39;448792;1237;139234;-59
2024/03/04 16:03:04;;;;;;;37.50;26.70;;;;;;;6.35;100.00;98837.59;449162;1233;138640;-57
2024/03/04 16:13:08;;;;;;;42.20;29.30;;;;;;;6.26;100.00;98845.43;449728;1235;139177;-61
2024/03/04 16:23:11;;;;;;;43.50;30.50;;;;;;;6.16;100.00;98855.21;449351;1237;139234;-61
2024/03/04 16:33:14;;;;;;;46.10;30.20;;;;;;;6.04;100.00;98863.17;449025;1235;139758;-60
2024/03/04 16:43:20;;;;;;;41.60;30.00;;;;;;;5.88;100.00;98862.61;448928;1237;139529;-61
2024/03/04 16:53:24;;;;;;;38.60;27.90;;;;;;;5.79;100.00;98871.30;448880;1237;139817;-59
2024/03/04 17:03:28;;;;;;;38.30;26.50;;;;;;;5.68;100.00;98879.03;449139;1237;139718;-60
2024/03/04 17:13:31;;;;;;;45.70;28.10;;;;;;;5.58;100.00;98889.98;449000;1233;139118;-56
2024/03/04 17:23:35;;;;;;;38.80;28.60;;;;;;;5.48;100.00;98893.83;449502;1237;139109;-57
2024/03/04 17:33:40;;;;;;;43.00;28.70;;;;;;;5.41;100.00;98895.26;449012;1237;139203;-61
2024/03/04 17:43:44;;;;;;;38.40;26.60;;;;;;;5.36;100.00;98892.02;448401;1237;138836;-61
2024/03/04 17:53:47;;;;;;;45.40;27.10;;;;;;;5.27;100.00;98899.77;450573;1238;139035;-68
2024/03/04 18:03:50;;;;;;;34.80;25.60;;;;;;;5.16;100.00;98907.81;448272;1237;139120;-68
2024/03/04 18:13:57;;;;;;;31.70;24.30;;;;;;;5.14;100.00;98910.57;451081;1237;138661;-60
2024/03/04 18:24:00;;;;;;;32.10;23.70;;;;;;;5.10;100.00;98912.16;448423;1237;139460;-60
2024/03/04 18:34:04;;;;;;;33.90;25.70;;;;;;;5.07;100.00;98916.80;449291;1237;139144;-60
2024/03/04 18:44:08;;;;;;;35.00;25.10;;;;;;;5.02;100.00;98919.80;449563;1237;310247;-60
2024/03/04 18:54:15;;;;;;;37.40;28.30;;;;;;;4.92;100.00;98922.61;448537;1237;139922;-60
2024/03/04 19:04:18;;;;;;;39.40;28.60;;;;;;;4.83;100.00;98929.66;448334;1233;138817;-57
2024/03/04 19:14:22;;;;;;;39.20;28.50;;;;;;;4.73;100.00;98933.23;448127;1237;139381;-62
2024/03/04 19:24:25;;;;;;;35.40;26.40;;;;;;;4.64;100.00;98934.91;448112;1233;139637;-66
2024/03/04 19:34:29;;;;;;;37.40;27.80;;;;;;;4.59;100.00;98939.48;448056;1237;139377;-67
2024/03/04 19:44:32;;;;;;;32.60;28.70;;;;;;;4.54;100.00;98935.26;448094;1237;139203;-63
2024/03/04 19:54:37;;;;;;;40.20;27.90;;;;;;;4.51;100.00;98937.96;447949;1233;139018;-62
2024/03/04 20:04:45;;;;;;;37.10;26.30;;;;;;;4.46;100.00;98937.53;449328;1237;139157;-62
2024/03/04 20:14:49;;;;;;;32.50;25.00;;;;;;;4.42;100.00;98934.75;448795;1234;139429;-74
2024/03/04 20:24:52;;;;;;;32.80;25.10;;;;;;;4.42;100.00;98934.63;449000;1235;139143;-55
2024/03/04 20:34:55;;;;;;;36.90;27.10;;;;;;;4.36;100.00;98934.91;450467;1236;139435;-52
2024/03/04 20:44:59;;;;;;;37.00;28.20;;;;;;;4.31;100.00;98932.53;449023;1233;138709;-64
2024/03/04 20:55:02;;;;;;;35.00;28.60;;;;;;;4.24;100.00;98931.67;448123;1237;139266;-60
2024/03/04 21:05:07;;;;;;;34.90;26.50;;;;;;;4.14;100.00;98929.55;449690;1233;139356;-59
2024/03/04 21:15:12;;;;;;;35.70;27.90;;;;;;;4.05;100.00;98934.63;448470;1237;139294;-58
2024/03/04 21:25:15;;;;;;;31.80;25.40;;;;;;;3.98;100.00;98933.59;449390;1236;139412;-61
2024/03/04 21:35:19;;;;;;;39.30;28.70;;;;;;;3.89;100.00;98928.45;449176;1235;139023;-63
2024/03/04 21:45:22;;;;;;;35.00;27.30;;;;;;;3.77;100.00;98927.81;449612;1235;140609;-60
2024/03/04 21:55:28;;;;;;;33.80;26.50;;;;;;;3.66;100.00;98914.65;448684;1234;139499;-59
2024/03/04 22:05:32;;;;;;;39.20;29.10;;;;;;;3.58;100.00;98906.34;448190;1234;139428;-60
2024/03/04 22:15:35;;;;;;;32.40;27.20;;;;;;;3.48;100.00;98906.64;448031;1238;138932;-60
2024/03/04 22:25:40;;;;;;;31.70;24.60;;;;;;;3.40;100.00;98906.80;448332;1237;138904;-60
2024/03/04 22:35:44;;;;;;;33.40;25.40;;;;;;;3.33;100.00;98909.73;448412;1238;139083;-59
2024/03/04 22:45:48;;;;;;;32.30;24.00;;;;;;;3.24;100.00;98914.45;449906;1233;141260;-50
2024/03/04 22:55:51;;;;;;;38.50;26.50;;;;;;;3.21;100.00;98917.00;449014;1237;138825;-61
2024/03/04 23:05:58;;;;;;;28.60;22.70;;;;;;;3.06;100.00;98925.59;447946;1238;139059;-67
2024/03/04 23:16:07;;;;;;;29.50;23.60;;;;;;;3.00;100.00;98920.33;448093;1234;139438;-62
2024/03/04 23:26:10;;;;;;;27.40;20.80;;;;;;;2.98;100.00;98932.89;447920;1233;138847;-59
2024/03/04 23:36:14;;;;;;;28.10;19.20;;;;;;;2.97;100.00;98937.08;449412;1235;139041;-59
2024/03/04 23:46:17;;;;;;;17.80;15.80;;;;;;;2.90;100.00;98943.05;449803;1238;139570;-62
2024/03/04 23:56:20;;;;;;;22.90;17.00;;;;;;;2.82;100.00;98944.80;450109;1237;139530;-59
